Time;durP1;ratioP1;P1;durP2;ratioP2;P2;SDS_P1;SDS_P2;PMS_P1;PMS_P2;Temp;Humidity;BMP_temperature;BMP_pressure;BME280_temperature;BME280_humidity;BME280_pressure;Samples;Min_cycle;Max_cycle;Signal;HPM_P1;HPM_P2
2021/11/17 02:27:24;;;;;;;9.77;5.93;;;3.40;99.90;;;;;;5047121;28;20045;-64
2021/11/17 02:30:35;;;;;;;49.83;26.80;;;3.40;99.90;;;;;;5047682;28;20041;-63
2021/11/17 02:33:10;;;;;;;29.70;15.85;;;3.50;99.90;;;;;;5043313;28;20064;-63
2021/11/17 02:36:00;;;;;;;13.52;7.60;;;3.50;99.90;;;;;;5047394;28;20049;-64
2021/11/17 02:38:56;;;;;;;12.70;7.30;;;3.40;99.90;;;;;;5062222;28;20040;-63
2021/11/17 02:41:33;;;;;;;9.73;6.07;;;3.50;99.90;;;;;;5051487;28;20041;-64
2021/11/17 02:44:43;;;;;;;12.13;6.30;;;3.50;99.90;;;;;;5047227;28;20043;-63
2021/11/17 02:47:41;;;;;;;13.10;7.00;;;3.40;99.90;;;;;;5022926;28;20045;-64
2021/11/17 02:50:27;;;;;;;15.85;7.68;;;3.40;99.90;;;;;;5002771;28;20038;-64
2021/11/17 02:53:10;;;;;;;12.23;7.25;;;3.40;99.90;;;;;;5046245;28;20047;-63
2021/11/17 02:55:54;;;;;;;12.10;6.85;;;3.40;99.90;;;;;;5066761;28;20052;-63
2021/11/17 02:58:41;;;;;;;14.82;7.47;;;3.40;99.90;;;;;;5066724;28;20043;-63
2021/11/17 03:01:16;;;;;;;9.75;6.40;;;3.40;99.90;;;;;;5066488;28;20032;-63
2021/11/17 03:04:15;;;;;;;12.25;5.55;;;3.40;99.90;;;;;;5060975;28;20444;-63
2021/11/17 03:06:56;;;;;;;11.40;5.68;;;3.40;99.90;;;;;;4996130;28;20153;-63
2021/11/17 03:09:39;;;;;;;8.32;5.57;;;3.40;99.90;;;;;;5067128;28;20033;-63
2021/11/17 03:12:11;;;;;;;8.80;5.50;;;3.40;99.90;;;;;;5046772;28;20404;-63
2021/11/17 03:15:06;;;;;;;9.90;5.60;;;3.40;99.90;;;;;;5047200;28;20436;-63
2021/11/17 03:17:46;;;;;;;8.45;4.47;;;3.40;99.90;;;;;;5044064;28;20037;-63
2021/11/17 03:20:37;;;;;;;8.40;5.28;;;3.40;99.90;;;;;;5046415;28;20508;-63
2021/11/17 03:23:33;;;;;;;6.97;4.53;;;3.40;99.90;;;;;;5046355;28;20132;-64
2021/11/17 03:26:08;;;;;;;9.23;4.43;;;3.40;99.90;;;;;;5046577;28;20658;-63
2021/11/17 03:28:39;;;;;;;7.22;4.13;;;3.40;99.90;;;;;;5046509;28;20037;-64
2021/11/17 03:31:29;;;;;;;5.88;3.53;;;3.50;99.90;;;;;;5045799;28;20037;-63
2021/11/17 03:34:10;;;;;;;5.88;3.53;;;3.50;99.90;;;;;;5046704;28;20056;-64
2021/11/17 03:36:50;;;;;;;6.43;3.70;;;3.40;99.90;;;;;;5046339;28;20036;-63
2021/11/17 03:39:45;;;;;;;6.95;4.40;;;3.40;99.90;;;;;;5060821;28;20435;-63
2021/11/17 03:42:29;;;;;;;7.10;4.28;;;3.40;99.90;;;;;;5051547;28;20377;-63
2021/11/17 03:45:21;;;;;;;7.68;3.88;;;3.40;99.90;;;;;;5066138;28;20036;-63
2021/11/17 03:48:10;;;;;;;8.95;4.53;;;3.40;99.90;;;;;;5062562;28;20048;-63
2021/11/17 03:51:02;;;;;;;5.68;3.85;;;3.40;99.90;;;;;;5066867;28;20080;-63
2021/11/17 03:53:48;;;;;;;5.68;3.58;;;3.40;99.90;;;;;;5068438;28;20045;-63
2021/11/17 03:56:35;;;;;;;6.32;3.97;;;3.40;99.90;;;;;;5070290;28;20051;-63
2021/11/17 03:59:01;;;;;;;;;;;3.30;99.90;;;;;;5069390;28;20044;-63
2021/11/17 04:01:39;;;;;;;7.20;4.35;;;3.30;99.90;;;;;;5069587;28;20027;-63
2021/11/17 04:04:07;;;;;;;6.88;3.90;;;3.40;99.90;;;;;;5069776;28;20086;-64
2021/11/17 04:06:48;;;;;;;6.38;3.97;;;3.40;99.90;;;;;;5069582;28;20048;-66
2021/11/17 04:09:33;;;;;;;8.38;4.10;;;3.50;99.90;;;;;;5063961;28;20092;-66
2021/11/17 04:12:25;;;;;;;6.72;3.70;;;3.40;99.90;;;;;;5050557;28;20049;-66
2021/11/17 04:15:26;;;;;;;7.93;4.35;;;3.50;99.90;;;;;;5049403;28;20041;-64
2021/11/17 04:18:11;;;;;;;7.03;4.07;;;3.40;99.90;;;;;;5088645;28;20043;-66
2021/11/17 04:20:43;;;;;;;6.43;3.25;;;3.40;99.90;;;;;;5089257;28;20169;-66
2021/11/17 04:23:31;;;;;;;6.18;3.67;;;3.40;99.90;;;;;;5089961;28;20040;-66
2021/11/17 04:26:35;;;;;;;6.03;3.50;;;3.40;99.90;;;;;;5089554;28;20151;-65
2021/11/17 04:29:20;;;;;;;5.47;3.03;;;3.40;99.90;;;;;;5089041;28;20051;-66
2021/11/17 04:32:13;;;;;;;7.10;4.00;;;3.40;99.90;;;;;;5089027;28;20052;-65
2021/11/17 04:35:00;;;;;;;5.75;3.40;;;3.40;99.90;;;;;;5089263;28;20575;-65
2021/11/17 04:37:48;;;;;;;6.88;3.50;;;3.40;99.90;;;;;;5088961;28;20059;-66
2021/11/17 04:40:49;;;;;;;5.97;3.58;;;3.40;99.90;;;;;;5083284;28;20100;-66
2021/11/17 04:43:27;;;;;;;7.00;3.78;;;3.40;99.90;;;;;;5087771;28;20137;-65
2021/11/17 04:46:18;;;;;;;6.43;3.67;;;3.30;99.90;;;;;;5088221;28;20114;-65
2021/11/17 04:49:02;;;;;;;5.25;3.35;;;3.40;99.90;;;;;;5088697;28;20040;-65
2021/11/17 04:51:53;;;;;;;5.25;3.10;;;3.40;99.90;;;;;;5089201;28;20063;-66
2021/11/17 04:54:31;;;;;;;6.22;3.15;;;3.40;99.90;;;;;;5089498;28;20050;-65
2021/11/17 04:57:07;;;;;;;5.90;3.70;;;3.40;99.90;;;;;;5088735;28;20675;-65
2021/11/17 04:59:54;;;;;;;6.85;3.75;;;3.30;99.90;;;;;;5066754;28;20047;-65
2021/11/17 05:02:32;;;;;;;6.10;3.83;;;3.40;99.90;;;;;;5088603;28;20039;-66
2021/11/17 05:05:25;;;;;;;20.90;10.25;;;3.20;99.90;;;;;;5090625;28;20036;-66
2021/11/17 05:07:57;;;;;;;8.90;4.88;;;3.20;99.90;;;;;;5088138;28;20075;-67
2021/11/17 05:10:44;;;;;;;16.27;7.28;;;3.30;99.90;;;;;;5089042;28;20055;-66
2021/11/17 05:13:22;;;;;;;9.05;4.10;;;3.30;99.90;;;;;;5087945;28;20039;-67
2021/11/17 05:15:56;;;;;;;7.50;4.15;;;3.40;99.90;;;;;;5086959;28;20535;-66
2021/11/17 05:18:36;;;;;;;7.07;3.97;;;3.40;99.90;;;;;;5070026;28;20491;-66
2021/11/17 05:21:32;;;;;;;5.72;3.50;;;3.40;99.90;;;;;;5088385;28;20036;-66
2021/11/17 05:24:23;;;;;;;6.07;3.30;;;3.50;99.90;;;;;;5088486;28;20039;-66
2021/11/17 05:26:57;;;;;;;5.88;3.20;;;3.40;99.90;;;;;;5088126;28;20047;-66
2021/11/17 05:29:35;;;;;;;7.20;3.22;;;3.40;99.90;;;;;;5088533;28;20511;-66
2021/11/17 05:32:43;;;;;;;5.80;3.35;;;3.40;99.90;;;;;;5088228;28;20044;-66
2021/11/17 05:35:27;;;;;;;6.13;3.50;;;3.40;99.90;;;;;;5086158;28;20040;-66
2021/11/17 05:38:02;;;;;;;6.72;3.28;;;3.50;99.90;;;;;;5087908;28;20099;-66
2021/11/17 05:40:43;;;;;;;6.70;2.88;;;3.50;99.90;;;;;;5087004;28;20038;-66
2021/11/17 05:43:14;;;;;;;7.28;3.40;;;3.60;99.90;;;;;;5080872;28;20515;-66
2021/11/17 05:45:58;;;;;;;6.28;2.90;;;3.60;99.90;;;;;;5087132;28;20031;-66
2021/11/17 05:48:45;;;;;;;5.90;3.08;;;3.60;99.90;;;;;;5088294;28;20101;-67
2021/11/17 05:51:31;;;;;;;;;;;3.60;99.90;;;;;;5088097;28;20120;-65
2021/11/17 05:54:19;;;;;;;5.30;3.08;;;3.50;99.90;;;;;;5046437;28;20338;-66
2021/11/17 05:57:12;;;;;;;5.22;2.88;;;3.60;99.90;;;;;;5087805;28;20089;-66
2021/11/17 06:00:03;;;;;;;5.32;3.00;;;3.60;99.90;;;;;;5088026;28;20139;-65
2021/11/17 06:03:06;;;;;;;5.50;2.42;;;3.60;99.90;;;;;;5085931;28;20044;-66
2021/11/17 06:05:31;;;;;;;5.38;2.83;;;3.60;99.90;;;;;;5086535;28;20449;-66
2021/11/17 06:07:57;;;;;;;5.07;3.00;;;3.70;99.90;;;;;;5084866;28;20028;-66
2021/11/17 06:10:29;;;;;;;4.57;2.95;;;3.70;99.90;;;;;;5087077;28;20043;-69
2021/11/17 06:12:56;;;;;;;5.63;3.00;;;3.70;99.90;;;;;;5087326;28;20036;-65
2021/11/17 06:15:21;;;;;;;6.47;2.97;;;3.70;99.90;;;;;;5086254;28;20123;-65
2021/11/17 06:17:50;;;;;;;5.25;3.20;;;3.70;99.90;;;;;;5087586;28;20115;-67
2021/11/17 06:20:18;;;;;;;4.90;2.33;;;3.70;99.90;;;;;;5087121;28;20044;-67
2021/11/17 06:22:49;;;;;;;5.85;2.30;;;3.70;99.90;;;;;;5087604;28;20051;-67
2021/11/17 06:25:17;;;;;;;4.18;2.00;;;3.80;99.90;;;;;;5087530;28;20032;-67
2021/11/17 06:27:47;;;;;;;3.00;1.92;;;3.80;99.90;;;;;;5087347;28;20564;-67
2021/11/17 06:30:15;;;;;;;3.90;2.17;;;3.80;99.90;;;;;;5087133;28;20051;-67
2021/11/17 06:32:41;;;;;;;4.03;2.30;;;3.80;99.90;;;;;;5087648;28;20380;-67
2021/11/17 06:35:08;;;;;;;4.50;2.65;;;3.80;99.90;;;;;;5086764;28;20755;-67
2021/11/17 06:37:34;;;;;;;4.53;2.58;;;3.70;99.90;;;;;;5086933;28;20852;-67
2021/11/17 06:40:03;;;;;;;5.20;2.92;;;3.80;99.90;;;;;;5093374;28;20054;-67
2021/11/17 06:42:38;;;;;;;4.80;2.25;;;3.80;99.90;;;;;;5086593;28;20048;-66
2021/11/17 06:45:16;;;;;;;7.78;3.10;;;3.80;99.90;;;;;;5087031;28;20040;-65
2021/11/17 06:47:42;;;;;;;7.25;3.75;;;3.80;99.90;;;;;;5068645;28;20046;-66
2021/11/17 06:50:09;;;;;;;5.72;3.00;;;3.80;99.90;;;;;;5106752;28;20399;-66
2021/11/17 06:52:34;;;;;;;5.88;2.88;;;3.80;99.90;;;;;;5106936;28;20051;-66
2021/11/17 06:55:00;;;;;;;5.18;2.88;;;3.70;99.90;;;;;;5107073;28;20039;-66
2021/11/17 06:57:26;;;;;;;5.22;2.42;;;3.70;99.90;;;;;;5107363;28;20043;-66
2021/11/17 06:59:51;;;;;;;17.50;3.22;;;3.80;99.90;;;;;;5105855;28;20483;-66
2021/11/17 07:02:17;;;;;;;3.42;2.10;;;3.70;99.90;;;;;;5101429;28;20082;-66
2021/11/17 07:04:42;;;;;;;5.50;2.50;;;3.80;99.90;;;;;;5085616;28;20040;-66
2021/11/17 07:07:13;;;;;;;4.43;2.38;;;3.80;99.90;;;;;;5072356;28;20047;-66
2021/11/17 07:09:39;;;;;;;3.13;1.90;;;3.80;99.90;;;;;;5086770;28;20119;-66
2021/11/17 07:12:05;;;;;;;3.35;2.25;;;3.90;99.90;;;;;;5086426;28;20131;-66
2021/11/17 07:14:31;;;;;;;3.75;2.08;;;3.80;99.90;;;;;;5086358;28;20051;-66
2021/11/17 07:16:57;;;;;;;9.18;3.92;;;3.90;99.90;;;;;;5071205;28;20047;-66
2021/11/17 07:19:26;;;;;;;14.05;8.20;;;3.90;99.90;;;;;;5066426;28;20052;-66
2021/11/17 07:21:57;;;;;;;35.78;18.73;;;3.90;99.90;;;;;;5057907;28;20551;-66
2021/11/17 07:24:24;;;;;;;32.33;20.42;;;3.90;99.90;;;;;;5056834;28;20048;-66
2021/11/17 07:26:50;;;;;;;24.02;14.15;;;3.90;99.90;;;;;;5057680;28;20037;-66
2021/11/17 07:29:16;;;;;;;15.50;7.93;;;3.90;99.90;;;;;;5061700;28;20036;-66
2021/11/17 07:31:44;;;;;;;14.07;7.15;;;4.00;99.90;;;;;;5059566;28;20495;-66
2021/11/17 07:34:11;;;;;;;10.50;5.75;;;3.90;99.90;;;;;;5059388;28;20036;-65
2021/11/17 07:36:38;;;;;;;8.10;3.97;;;4.00;99.90;;;;;;5059214;28;20045;-66
2021/11/17 07:39:05;;;;;;;4.93;2.58;;;4.00;99.90;;;;;;5053173;28;20040;-66
2021/11/17 07:41:31;;;;;;;6.32;2.90;;;4.00;99.90;;;;;;5071536;28;20396;-66
2021/11/17 07:43:57;;;;;;;3.75;2.33;;;4.00;99.90;;;;;;5053309;28;20095;-66
2021/11/17 07:46:24;;;;;;;7.47;4.15;;;4.10;99.90;;;;;;5080800;28;20681;-66
2021/11/17 07:48:51;;;;;;;7.05;4.00;;;4.10;99.90;;;;;;5073060;28;20119;-66
2021/11/17 07:51:17;;;;;;;4.97;2.90;;;4.10;99.90;;;;;;5089741;28;20078;-66
2021/11/17 07:53:44;;;;;;;4.13;2.67;;;4.10;99.90;;;;;;5062924;28;21144;-66
2021/11/17 07:56:10;;;;;;;5.03;3.03;;;4.20;99.90;;;;;;5059166;28;20076;-66
2021/11/17 07:58:39;;;;;;;6.03;3.40;;;4.20;99.90;;;;;;5062732;28;20056;-65
2021/11/17 08:01:06;;;;;;;6.10;3.50;;;4.20;99.90;;;;;;5054266;28;21384;-67
2021/11/17 08:03:35;;;;;;;6.35;3.58;;;4.30;99.90;;;;;;5080446;28;20392;-66
2021/11/17 08:06:01;;;;;;;7.60;3.00;;;4.30;99.90;;;;;;5049863;28;20450;-66
2021/11/17 08:08:30;;;;;;;8.88;3.63;;;4.30;99.90;;;;;;5064706;28;20036;-66
2021/11/17 08:10:56;;;;;;;4.68;2.85;;;4.40;99.90;;;;;;5050445;28;20036;-66
2021/11/17 08:13:21;;;;;;;4.95;2.90;;;4.40;99.90;;;;;;5061339;28;20044;-67
2021/11/17 08:15:47;;;;;;;5.15;3.50;;;4.40;99.90;;;;;;5062975;28;20792;-66
2021/11/17 08:18:13;;;;;;;3.67;2.75;;;4.50;99.90;;;;;;5077812;28;20555;-67
2021/11/17 08:20:39;;;;;;;4.57;3.03;;;4.50;99.90;;;;;;5077893;28;20036;-66
2021/11/17 08:23:04;;;;;;;4.38;2.83;;;4.60;99.90;;;;;;5079987;28;20047;-66
2021/11/17 08:25:33;;;;;;;4.93;3.13;;;4.50;99.90;;;;;;5094621;28;20045;-66
2021/11/17 08:28:00;;;;;;;3.70;2.40;;;4.60;99.90;;;;;;5093432;28;20116;-66
2021/11/17 08:30:30;;;;;;;3.83;2.40;;;4.70;99.90;;;;;;5079368;28;20043;-66
2021/11/17 08:32:56;;;;;;;4.60;2.30;;;4.70;99.90;;;;;;5084583;28;20044;-66
2021/11/17 08:35:24;;;;;;;3.83;2.15;;;4.70;99.90;;;;;;5080614;28;20036;-66
2021/11/17 08:37:53;;;;;;;17.60;9.93;;;4.80;99.90;;;;;;5080434;28;20131;-66
2021/11/17 08:40:30;;;;;;;40.72;18.02;;;4.90;99.90;;;;;;5084216;28;20082;-66
2021/11/17 08:42:56;;;;;;;;;;;4.90;99.90;;;;;;5081058;28;20695;-67
2021/11/17 08:45:22;;;;;;;8.90;4.30;;;5.00;99.90;;;;;;5079265;28;19930;-66
2021/11/17 08:47:49;;;;;;;10.15;5.57;;;5.00;99.90;;;;;;5077786;28;20102;-66
2021/11/17 08:50:17;;;;;;;25.58;15.40;;;5.10;99.90;;;;;;5061185;28;20032;-66
2021/11/17 08:52:45;;;;;;;11.30;5.90;;;5.10;99.90;;;;;;5069392;28;20044;-66
2021/11/17 08:55:11;;;;;;;70.47;39.33;;;5.10;99.90;;;;;;5068693;28;20120;-66
2021/11/17 08:57:38;;;;;;;17.00;9.85;;;5.10;99.90;;;;;;5069259;28;20047;-66
2021/11/17 09:00:10;;;;;;;6.55;3.95;;;5.20;99.90;;;;;;5069000;28;20127;-66
2021/11/17 09:02:41;;;;;;;5.03;3.17;;;5.20;99.90;;;;;;5074317;28;20035;-66
2021/11/17 09:05:14;;;;;;;6.25;2.20;;;5.30;99.90;;;;;;5089109;28;20072;-67
2021/11/17 09:07:41;;;;;;;2.70;2.03;;;5.30;99.90;;;;;;5088906;28;20043;-65
2021/11/17 09:10:19;;;;;;;4.28;2.25;;;5.40;99.90;;;;;;5086844;28;20036;-64
2021/11/17 09:12:46;;;;;;;4.75;2.38;;;5.50;99.90;;;;;;5089181;28;20481;-64
2021/11/17 09:15:14;;;;;;;2.90;2.00;;;5.60;99.90;;;;;;5070688;28;20085;-66
2021/11/17 09:17:40;;;;;;;3.58;2.25;;;5.70;99.90;;;;;;5088994;28;20036;-66
2021/11/17 09:20:08;;;;;;;5.10;1.90;;;5.70;99.90;;;;;;5089196;28;20414;-66
2021/11/17 09:22:33;;;;;;;4.28;2.17;;;5.80;99.90;;;;;;5087631;28;20055;-66
2021/11/17 09:25:01;;;;;;;2.75;1.50;;;5.80;99.90;;;;;;5087927;28;20044;-66
2021/11/17 09:27:27;;;;;;;3.95;1.88;;;5.80;99.90;;;;;;5085726;28;20104;-66
2021/11/17 09:29:54;;;;;;;5.03;1.67;;;5.80;99.90;;;;;;5086915;28;20045;-66
2021/11/17 09:32:20;;;;;;;3.30;1.88;;;5.80;99.90;;;;;;5087566;28;20411;-66
2021/11/17 09:34:46;;;;;;;2.63;1.77;;;5.90;99.90;;;;;;5088210;28;20403;-66
2021/11/17 09:37:12;;;;;;;2.15;1.70;;;5.90;99.90;;;;;;5087306;28;20054;-66
2021/11/17 09:39:40;;;;;;;2.42;1.50;;;6.00;99.90;;;;;;5088208;28;20872;-66
2021/11/17 09:42:07;;;;;;;2.97;1.77;;;6.00;99.90;;;;;;5088379;28;20403;-66
2021/11/17 09:44:40;;;;;;;10.88;5.47;;;6.00;99.90;;;;;;5088279;28;20066;-66
2021/11/17 09:47:15;;;;;;;10.45;6.03;;;6.10;99.90;;;;;;5087921;28;20032;-66
2021/11/17 09:49:47;;;;;;;11.00;6.45;;;6.10;99.90;;;;;;5087455;28;20392;-66
2021/11/17 09:52:17;;;;;;;5.05;2.85;;;6.20;99.90;;;;;;5087029;28;20040;-66
2021/11/17 09:54:45;;;;;;;6.65;3.55;;;6.20;99.90;;;;;;5085354;28;20032;-65
2021/11/17 09:57:29;;;;;;;3.00;1.92;;;6.20;99.90;;;;;;5085336;28;20121;-66
2021/11/17 10:00:09;;;;;;;3.50;2.17;;;6.20;99.90;;;;;;5085086;28;20079;-66
2021/11/17 10:03:08;;;;;;;4.72;1.92;;;6.20;99.90;;;;;;5084065;28;20036;-66
2021/11/17 10:11:54;;;;;;;4.60;3.03;;;6.30;99.90;;;;;;5084542;28;20036;-66
2021/11/17 10:14:36;;;;;;;7.25;4.15;;;6.30;99.90;;;;;;5087456;28;20043;-66
2021/11/17 10:17:22;;;;;;;7.40;4.15;;;6.30;99.90;;;;;;5087027;28;20048;-66
2021/11/17 10:20:12;;;;;;;7.93;4.90;;;6.30;99.90;;;;;;5087371;28;20048;-66
2021/11/17 10:22:39;;;;;;;7.60;4.80;;;6.20;99.90;;;;;;5086711;28;20098;-66
2021/11/17 10:25:18;;;;;;;10.25;6.20;;;6.20;99.90;;;;;;5088029;28;20152;-66
2021/11/17 10:27:59;;;;;;;7.53;4.78;;;6.10;99.90;;;;;;5087414;28;20488;-66
2021/11/17 10:30:38;;;;;;;7.43;4.40;;;6.10;99.90;;;;;;5085961;28;20047;-66
2021/11/17 10:33:17;;;;;;;8.50;5.15;;;6.10;99.90;;;;;;5069133;28;20063;-66
2021/11/17 10:35:59;;;;;;;7.63;5.07;;;6.10;99.90;;;;;;5086242;28;20046;-66
2021/11/17 10:38:59;;;;;;;9.90;5.22;;;6.20;99.90;;;;;;5081363;28;20500;-66
2021/11/17 10:41:28;;;;;;;8.80;5.43;;;6.20;99.90;;;;;;5072661;28;20194;-66
2021/11/17 10:44:02;;;;;;;9.98;5.68;;;6.20;99.90;;;;;;5086449;28;20175;-66
2021/11/17 10:46:46;;;;;;;9.32;5.80;;;6.30;99.90;;;;;;5085872;28;20040;-67
2021/11/17 10:49:16;;;;;;;8.23;5.40;;;6.30;99.90;;;;;;5086825;28;20044;-67
2021/11/17 10:52:05;;;;;;;7.47;4.85;;;6.30;99.90;;;;;;5087231;28;20040;-66
2021/11/17 10:54:33;;;;;;;8.52;5.32;;;6.30;99.90;;;;;;5084273;28;20040;-66
2021/11/17 10:57:02;;;;;;;9.48;5.60;;;6.40;99.90;;;;;;5085604;28;20067;-66
2021/11/17 10:59:28;;;;;;;7.45;5.10;;;6.40;99.90;;;;;;5086113;28;20050;-66
2021/11/17 11:01:53;;;;;;;9.82;5.47;;;6.30;99.90;;;;;;5086031;28;20044;-66
2021/11/17 11:04:24;;;;;;;8.35;5.13;;;6.30;99.90;;;;;;5086860;28;20508;-66
2021/11/17 11:06:54;;;;;;;10.65;5.47;;;6.40;99.90;;;;;;5085884;28;20040;-67
2021/11/17 11:09:30;;;;;;;12.07;5.60;;;6.40;99.90;;;;;;5087148;28;20044;-66
2021/11/17 11:11:58;;;;;;;7.28;4.65;;;6.50;99.90;;;;;;5078928;28;20048;-66
2021/11/17 11:14:31;;;;;;;7.50;4.78;;;6.60;99.90;;;;;;5069588;28;20045;-66
2021/11/17 11:17:02;;;;;;;7.85;4.70;;;6.70;99.90;;;;;;5070656;28;20040;-66
2021/11/17 11:19:31;;;;;;;9.00;4.50;;;6.80;99.90;;;;;;5070110;28;20638;-66
2021/11/17 11:22:11;;;;;;;17.00;10.93;;;6.70;99.90;;;;;;5066913;28;20055;-66
2021/11/17 11:24:46;;;;;;;9.10;5.45;;;6.70;99.90;;;;;;5076970;28;20055;-66
2021/11/17 11:27:18;;;;;;;7.88;4.90;;;6.70;99.90;;;;;;5084157;28;20040;-66
2021/11/17 11:29:50;;;;;;;8.00;5.00;;;6.70;99.90;;;;;;5087238;28;20068;-66
2021/11/17 11:32:15;;;;;;;7.63;4.93;;;6.70;99.90;;;;;;5086609;28;20040;-66
2021/11/17 11:35:07;;;;;;;;;;;6.70;99.90;;;;;;5087591;28;20495;-66
2021/11/17 11:37:32;;;;;;;8.63;5.30;;;6.70;99.90;;;;;;5082962;28;19916;-67
2021/11/17 11:40:11;;;;;;;9.48;5.90;;;6.60;99.90;;;;;;5086664;28;20089;-66
2021/11/17 11:43:07;;;;;;;8.98;5.82;;;6.60;99.90;;;;;;5068209;28;20399;-66
2021/11/17 11:45:35;;;;;;;10.63;6.65;;;6.60;99.90;;;;;;5086441;28;20645;-66
2021/11/17 11:48:12;;;;;;;10.65;6.47;;;6.50;99.90;;;;;;5086754;28;20040;-66
2021/11/17 11:50:37;;;;;;;;;;;6.40;99.90;;;;;;5087613;28;20064;-66
2021/11/17 11:53:11;;;;;;;11.02;6.43;;;6.40;99.90;;;;;;5087066;28;19994;-66
2021/11/17 11:55:56;;;;;;;10.32;5.88;;;6.50;99.90;;;;;;5086243;28;20044;-66
2021/11/17 11:58:23;;;;;;;10.82;6.25;;;6.50;99.90;;;;;;5087315;28;20098;-66
2021/11/17 12:01:04;;;;;;;10.38;6.30;;;6.50;99.90;;;;;;5086197;28;20047;-66
2021/11/17 12:03:34;;;;;;;9.43;6.10;;;6.40;99.90;;;;;;5078356;28;20083;-66
2021/11/17 12:06:31;;;;;;;10.63;6.85;;;6.40;99.90;;;;;;5086005;28;20048;-62
2021/11/17 12:09:18;;;;;;;11.18;6.43;;;6.40;99.90;;;;;;5063611;28;20040;-63
2021/11/17 12:12:17;;;;;;;12.15;7.97;;;6.40;99.90;;;;;;5087214;28;20048;-63
2021/11/17 12:14:52;;;;;;;11.70;7.90;;;6.30;99.90;;;;;;5089599;28;20412;-65
2021/11/17 12:17:26;;;;;;;16.65;8.35;;;6.40;99.90;;;;;;5089498;28;20036;-66
2021/11/17 12:19:59;;;;;;;13.43;7.32;;;6.40;99.90;;;;;;5090378;28;20043;-65
2021/11/17 12:22:45;;;;;;;13.18;7.10;;;6.40;99.90;;;;;;5090599;28;20126;-65
2021/11/17 12:25:32;;;;;;;16.80;10.07;;;6.40;99.90;;;;;;5090103;28;20043;-66
2021/11/17 12:28:13;;;;;;;17.17;8.77;;;6.40;99.90;;;;;;5072916;28;20095;-65
2021/11/17 12:30:44;;;;;;;23.48;11.65;;;6.40;99.90;;;;;;5089285;28;20038;-65
2021/11/17 12:33:21;;;;;;;13.57;8.73;;;6.40;99.90;;;;;;5090321;28;20049;-65
2021/11/17 12:36:01;;;;;;;13.93;8.32;;;6.40;99.90;;;;;;5089332;28;20040;-66
2021/11/17 12:38:28;;;;;;;12.85;7.63;;;6.40;99.90;;;;;;5089813;28;20071;-65
2021/11/17 12:40:58;;;;;;;12.00;7.85;;;6.40;99.90;;;;;;5089397;28;20052;-65
2021/11/17 12:43:44;;;;;;;12.52;8.45;;;6.40;99.90;;;;;;5089892;28;20035;-66
2021/11/17 12:46:39;;;;;;;13.23;8.13;;;6.40;99.90;;;;;;5070742;28;20044;-66
2021/11/17 12:49:22;;;;;;;18.00;9.60;;;6.50;99.90;;;;;;5078334;28;20040;-65
2021/11/17 12:51:54;;;;;;;15.40;8.98;;;6.50;99.90;;;;;;5069012;28;20036;-66
2021/11/17 12:54:45;;;;;;;18.42;8.90;;;6.50;99.90;;;;;;5081937;28;20519;-65
2021/11/17 12:57:14;;;;;;;20.15;9.88;;;6.50;99.90;;;;;;5074150;28;20051;-65
2021/11/17 12:59:56;;;;;;;15.60;9.23;;;6.50;99.90;;;;;;5083622;28;20036;-65
2021/11/17 13:02:21;;;;;;;15.43;8.65;;;6.50;99.90;;;;;;5070335;28;20529;-66
2021/11/17 13:04:53;;;;;;;16.33;9.10;;;6.50;99.90;;;;;;5088626;28;20040;-66
2021/11/17 13:07:41;;;;;;;16.73;9.63;;;6.50;99.90;;;;;;5067534;28;20498;-65
2021/11/17 13:10:07;;;;;;;12.40;7.90;;;6.50;99.90;;;;;;5082452;28;20120;-65
2021/11/17 13:12:35;;;;;;;13.32;8.00;;;6.50;99.90;;;;;;5089352;28;20123;-65
2021/11/17 13:15:12;;;;;;;18.85;11.30;;;6.60;99.90;;;;;;5089856;28;20491;-65
2021/11/17 13:17:44;;;;;;;16.55;10.82;;;6.60;99.90;;;;;;5068318;28;20044;-65
2021/11/17 13:20:12;;;;;;;16.02;8.93;;;6.60;99.90;;;;;;5069529;28;20115;-65
2021/11/17 13:22:44;;;;;;;15.13;9.05;;;6.50;99.90;;;;;;5068268;28;20076;-66
2021/11/17 13:25:12;;;;;;;15.68;8.32;;;6.60;99.90;;;;;;5069366;28;20068;-66
2021/11/17 13:27:46;;;;;;;13.80;8.20;;;6.50;99.90;;;;;;5067923;28;20040;-65
2021/11/17 13:30:26;;;;;;;13.10;8.50;;;6.60;99.90;;;;;;5050449;28;20036;-65
2021/11/17 13:32:53;;;;;;;15.25;8.35;;;6.50;99.90;;;;;;5068731;28;20036;-66
2021/11/17 13:35:38;;;;;;;15.20;9.00;;;6.50;99.90;;;;;;5067709;28;20116;-65
2021/11/17 13:38:20;;;;;;;18.83;10.50;;;6.50;99.90;;;;;;5062805;28;20129;-66
2021/11/17 13:40:52;;;;;;;21.17;10.50;;;6.60;99.90;;;;;;5069137;28;20062;-66
2021/11/17 13:43:19;;;;;;;21.45;9.43;;;6.50;99.90;;;;;;5069207;28;20048;-66
2021/11/17 13:45:51;;;;;;;15.25;8.35;;;6.40;99.90;;;;;;5068399;28;20042;-65
2021/11/17 13:48:20;;;;;;;15.68;8.60;;;6.40;99.90;;;;;;5068990;28;20063;-65
2021/11/17 13:50:47;;;;;;;13.75;8.00;;;6.50;99.90;;;;;;5068442;28;20048;-65
2021/11/17 13:53:15;;;;;;;13.15;6.72;;;6.50;99.90;;;;;;5067402;28;20044;-65
2021/11/17 13:55:52;;;;;;;12.13;6.72;;;6.50;99.90;;;;;;5067959;28;20064;-66
2021/11/17 13:58:18;;;;;;;10.32;5.93;;;6.50;99.90;;;;;;5067848;28;20578;-65
2021/11/17 14:00:43;;;;;;;9.43;5.28;;;6.50;99.90;;;;;;5068723;28;20040;-65
2021/11/17 14:03:09;;;;;;;;;;;6.50;99.90;;;;;;5077796;28;20036;-65
2021/11/17 14:05:40;;;;;;;7.38;3.90;;;6.50;99.90;;;;;;5067462;28;20407;-65
2021/11/17 14:08:10;;;;;;;6.80;4.30;;;6.40;99.90;;;;;;5064092;28;20622;-65
2021/11/17 14:10:36;;;;;;;8.75;4.88;;;6.50;99.90;;;;;;5073665;28;20047;-65
2021/11/17 14:13:05;;;;;;;5.78;3.75;;;6.50;99.90;;;;;;5067725;28;20120;-65
2021/11/17 14:15:31;;;;;;;5.90;3.15;;;6.40;99.90;;;;;;5073855;28;20123;-66
2021/11/17 14:17:57;;;;;;;6.57;3.22;;;6.40;99.90;;;;;;5066055;28;20098;-66
2021/11/17 14:20:23;;;;;;;25.23;17.35;;;6.40;99.90;;;;;;5066359;28;20056;-65
2021/11/17 14:22:49;;;;;;;10.30;6.25;;;6.40;99.90;;;;;;5066814;28;20055;-65
2021/11/17 14:25:17;;;;;;;5.60;3.45;;;6.40;99.90;;;;;;5066152;28;20044;-65
2021/11/17 14:28:05;;;;;;;5.82;2.88;;;6.40;99.90;;;;;;5077296;28;20044;-65
2021/11/17 14:30:41;;;;;;;3.53;2.28;;;6.40;99.90;;;;;;5061707;28;20037;-65
2021/11/17 14:33:08;;;;;;;6.30;2.53;;;6.40;99.90;;;;;;5062774;28;20066;-65
2021/11/17 14:35:34;;;;;;;5.18;2.92;;;6.30;99.90;;;;;;5066182;28;20041;-66
2021/11/17 14:38:01;;;;;;;6.28;3.13;;;6.30;99.90;;;;;;5066329;28;20036;-66
2021/11/17 14:40:28;;;;;;;6.15;2.90;;;6.30;99.90;;;;;;5066525;28;20480;-66
2021/11/17 14:42:54;;;;;;;13.40;6.45;;;6.30;99.90;;;;;;5067758;28;20047;-65
2021/11/17 14:45:24;;;;;;;7.78;4.07;;;6.30;99.90;;;;;;5065732;28;20044;-65
2021/11/17 14:47:50;;;;;;;7.05;3.90;;;6.30;99.90;;;;;;5048493;28;20082;-65
2021/11/17 14:50:17;;;;;;;6.43;3.55;;;6.30;99.90;;;;;;5066605;28;20044;-65
2021/11/17 14:52:43;;;;;;;7.30;3.45;;;6.20;99.90;;;;;;5066098;28;20036;-65
2021/11/17 14:55:12;;;;;;;11.52;4.90;;;6.20;99.90;;;;;;5067185;28;20514;-65
2021/11/17 14:57:38;;;;;;;9.48;5.40;;;6.20;99.90;;;;;;5066664;28;20051;-65
2021/11/17 15:00:08;;;;;;;9.35;4.25;;;6.20;99.90;;;;;;5065587;28;20052;-65
2021/11/17 15:02:33;;;;;;;9.15;4.50;;;6.10;99.90;;;;;;5064979;28;20075;-65
2021/11/17 15:04:59;;;;;;;7.53;4.25;;;6.10;99.90;;;;;;5066816;28;20633;-65
2021/11/17 15:07:25;;;;;;;;;;;6.20;99.90;;;;;;5066490;28;20049;-65
2021/11/17 15:09:50;;;;;;;6.95;3.92;;;6.10;99.90;;;;;;5066714;28;19916;-65
2021/11/17 15:12:26;;;;;;;6.75;4.22;;;6.20;99.90;;;;;;5048245;28;20434;-65
2021/11/17 15:14:52;;;;;;;11.02;4.78;;;6.20;99.90;;;;;;5065560;28;20044;-65
2021/11/17 15:17:18;;;;;;;18.73;7.72;;;6.20;99.90;;;;;;5064230;28;20199;-65
2021/11/17 15:19:44;;;;;;;10.75;4.82;;;6.20;99.90;;;;;;5087417;28;20493;-66
2021/11/17 15:22:09;;;;;;;17.88;7.15;;;6.20;99.90;;;;;;5085595;28;20463;-66
2021/11/17 15:24:35;;;;;;;5.82;3.38;;;6.20;99.90;;;;;;5086438;28;20039;-65
2021/11/17 15:27:29;;;;;;;11.00;3.67;;;6.10;99.90;;;;;;5085034;28;20123;-66
2021/11/17 15:29:56;;;;;;;9.00;4.28;;;6.20;99.90;;;;;;5086322;28;20055;-65
2021/11/17 15:32:22;;;;;;;7.07;3.97;;;6.10;99.90;;;;;;5085738;28;20039;-65
2021/11/17 15:34:48;;;;;;;6.20;2.90;;;6.10;99.90;;;;;;5068685;28;20036;-65
2021/11/17 15:37:14;;;;;;;5.85;3.40;;;6.10;99.90;;;;;;5085573;28;20051;-65
2021/11/17 15:39:40;;;;;;;7.63;3.63;;;6.10;99.90;;;;;;5087023;28;20075;-65
2021/11/17 15:42:07;;;;;;;11.82;6.50;;;6.10;99.90;;;;;;5086385;28;20071;-65
2021/11/17 15:44:33;;;;;;;10.85;7.25;;;6.10;99.90;;;;;;5085833;28;20036;-65
2021/11/17 15:47:05;;;;;;;8.13;5.18;;;6.10;99.90;;;;;;5084517;28;20449;-65
2021/11/17 15:49:31;;;;;;;5.90;2.97;;;6.20;99.90;;;;;;5089888;28;20051;-65
2021/11/17 15:51:58;;;;;;;117.47;68.20;;;6.20;99.90;;;;;;5088743;28;20551;-65
2021/11/17 15:54:25;;;;;;;14.13;8.65;;;6.20;99.90;;;;;;5089303;28;20515;-65
2021/11/17 15:56:53;;;;;;;7.28;3.90;;;6.20;99.90;;;;;;5089662;28;20044;-65
2021/11/17 15:59:20;;;;;;;4.85;2.92;;;6.10;99.90;;;;;;5070950;28;20181;-65
2021/11/17 16:01:47;;;;;;;5.10;2.70;;;6.10;99.90;;;;;;5089419;28;20051;-65
2021/11/17 16:04:13;;;;;;;6.97;3.30;;;6.10;99.90;;;;;;5098602;28;20038;-65
2021/11/17 16:07:02;;;;;;;7.93;2.88;;;6.10;99.90;;;;;;5097685;28;20040;-65